CheckWX is a tool to help pilots better visualize weather data.  It is not intended as a substitute for an official pre-flight weather briefing.

21:26:25 UTC

KDAA METAR
Davison AAF Airport
Fort Belvoir, Virginia, USA
Current

30 mins ago

KDAA 082056Z AUTO 16005KT 10SM CLR 32/21 A2992 RMK AO2 SLP134 T03230211 57016 $
Observed
Jul-8 @ 20:56 UTC
Wind
  • 160° at 5 KTS
Visibility
10 SM
Flight Rules
VFR
Cloud Levels
  • Clear skies
Temperature
32°C / 90°F
Dewpoint
21°C / 70°F
Humidity
52%
Altimeter
29.92" Hg
Pressure
1013.22 hPa
Previous

2 hours ago

KDAA 081956Z AUTO 17006KT 10SM CLR 33/20 A2993 RMK AO2 SLP137 T03250197 $
Observed
Jul-8 @ 19:56 UTC
Wind
  • 170° at 6 KTS
Visibility
10 SM
Flight Rules
VFR
Cloud Levels
  • Clear skies
Temperature
32°C / 90°F
Dewpoint
20°C / 68°F
Humidity
49%
Altimeter
29.93" Hg
Pressure
1013.52 hPa
Previous

3 hours ago

KDAA 081856Z AUTO 15004KT 10SM CLR 31/21 A2995 RMK AO2 SLP144 T03130205 $
Observed
Jul-8 @ 18:56 UTC
Wind
  • 150° at 4 KTS
Visibility
10 SM
Flight Rules
VFR
Cloud Levels
  • Clear skies
Temperature
31°C / 88°F
Dewpoint
20°C / 68°F
Humidity
52%
Altimeter
29.95" Hg
Pressure
1014.22 hPa